createdAt,value
2022-08-05T00:00:53.825Z,18.40
2022-08-05T00:03:20.634Z,18.10
2022-08-05T00:06:06.508Z,18.10
2022-08-05T00:08:36.455Z,17.80
2022-08-05T00:11:07.501Z,17.70
2022-08-05T00:13:52.927Z,17.60
2022-08-05T00:16:36.417Z,17.80
2022-08-05T00:19:07.453Z,17.80
2022-08-05T00:21:35.701Z,17.80
2022-08-05T00:24:10.590Z,18.00
2022-08-05T00:26:38.561Z,18.00
2022-08-05T00:29:05.348Z,17.90
2022-08-05T00:31:41.419Z,17.90
2022-08-05T00:34:55.465Z,17.80
2022-08-05T00:37:09.673Z,17.70
2022-08-05T00:39:57.325Z,17.80
2022-08-05T00:42:37.028Z,17.80
2022-08-05T00:45:05.723Z,17.80
2022-08-05T00:47:56.926Z,17.60
2022-08-05T00:50:25.457Z,17.40
2022-08-05T00:52:53.475Z,17.30
2022-08-05T00:55:22.383Z,17.30
2022-08-05T00:57:55.389Z,17.40
2022-08-05T01:00:26.061Z,17.40
2022-08-05T01:02:53.100Z,17.60
2022-08-05T01:05:20.087Z,17.60
2022-08-05T01:08:30.462Z,17.50
2022-08-05T01:10:52.436Z,17.50
2022-08-05T01:13:58.356Z,17.20
2022-08-05T01:17:13.902Z,17.00
2022-08-05T01:20:01.137Z,17.10
2022-08-05T01:22:51.342Z,17.20
2022-08-05T01:25:39.656Z,17.30
2022-08-05T01:28:13.573Z,17.20
2022-08-05T01:31:04.935Z,16.80
2022-08-05T01:33:36.037Z,16.80
2022-08-05T01:36:12.837Z,16.90
2022-08-05T01:38:50.841Z,16.90
2022-08-05T01:41:21.713Z,16.80
2022-08-05T01:43:52.049Z,16.60
2022-08-05T01:46:41.340Z,16.50
2022-08-05T01:49:24.119Z,16.50
2022-08-05T01:52:17.676Z,16.60
2022-08-05T01:54:52.063Z,16.80
2022-08-05T01:58:11.161Z,16.90
2022-08-05T02:00:14.034Z,17.00
2022-08-05T02:02:54.293Z,17.00
2022-08-05T02:05:31.574Z,16.90
2022-08-05T02:08:01.980Z,16.80
2022-08-05T02:10:34.787Z,16.80
2022-08-05T02:13:24.394Z,16.60
2022-08-05T02:16:22.126Z,16.50
2022-08-05T02:19:13.986Z,16.40
2022-08-05T02:21:52.571Z,16.20
2022-08-05T02:24:23.093Z,16.00
2022-08-05T02:26:56.310Z,15.90
2022-08-05T02:29:59.798Z,15.90
2022-08-05T02:32:23.780Z,16.10
2022-08-05T02:35:09.669Z,16.20
2022-08-05T02:37:47.909Z,16.20
2022-08-05T02:40:22.719Z,16.20
2022-08-05T02:42:54.199Z,16.20
2022-08-05T02:45:23.833Z,16.10
2022-08-05T02:48:06.655Z,16.10
2022-08-05T02:50:44.135Z,16.10
2022-08-05T02:53:18.771Z,16.30
2022-08-05T02:55:54.226Z,16.40
2022-08-05T02:58:27.503Z,16.40
2022-08-05T03:00:59.275Z,16.40
2022-08-05T03:03:34.082Z,16.50
2022-08-05T03:06:55.097Z,16.50
2022-08-05T03:09:04.255Z,16.50
2022-08-05T03:11:56.910Z,16.50
2022-08-05T03:14:17.802Z,16.20
2022-08-05T03:16:45.955Z,16.00
2022-08-05T03:19:16.932Z,16.00
2022-08-05T03:21:49.611Z,16.00
2022-08-05T03:24:29.313Z,16.10
2022-08-05T03:26:58.129Z,16.00
2022-08-05T03:29:24.886Z,15.70
2022-08-05T03:32:14.454Z,15.40
2022-08-05T03:34:42.665Z,15.30
2022-08-05T03:37:19.739Z,15.30
2022-08-05T03:40:01.832Z,15.40
2022-08-05T03:42:32.194Z,15.50
2022-08-05T03:44:59.299Z,15.50
2022-08-05T03:47:30.471Z,15.70
2022-08-05T03:50:02.369Z,15.80
2022-08-05T03:55:53.741Z,15.90
2022-08-05T03:56:01.562Z,16.00
2022-08-05T03:58:28.905Z,15.80
2022-08-05T04:00:57.879Z,15.50
2022-08-05T04:03:29.393Z,15.40
2022-08-05T04:05:57.953Z,15.40
2022-08-05T04:08:30.209Z,15.40
2022-08-05T04:11:04.711Z,15.40
2022-08-05T04:13:51.001Z,15.60
2022-08-05T04:16:24.325Z,15.80
2022-08-05T04:19:00.001Z,15.90
2022-08-05T04:22:09.469Z,15.90
2022-08-05T04:24:19.442Z,15.90
2022-08-05T04:26:50.151Z,15.80
2022-08-05T04:29:17.035Z,15.80
2022-08-05T04:31:43.815Z,15.80
2022-08-05T04:34:31.756Z,15.80
2022-08-05T04:36:57.905Z,15.90
2022-08-05T04:39:24.752Z,16.10
2022-08-05T04:41:55.427Z,16.30
2022-08-05T04:44:29.289Z,16.40
2022-08-05T04:46:58.769Z,16.50
2022-08-05T04:50:02.086Z,16.80
2022-08-05T04:52:13.128Z,16.90
2022-08-05T04:54:39.960Z,17.10
2022-08-05T04:57:06.760Z,17.10
2022-08-05T04:59:38.868Z,17.20
2022-08-05T05:02:36.998Z,17.30
2022-08-05T05:05:02.144Z,17.50
2022-08-05T05:07:35.246Z,17.70
2022-08-05T05:10:06.222Z,17.80
2022-08-05T05:12:33.408Z,17.90
2022-08-05T05:15:03.720Z,18.00
2022-08-05T05:17:57.128Z,18.20
2022-08-05T05:20:28.844Z,18.30
2022-08-05T05:22:57.294Z,18.50
2022-08-05T05:25:40.507Z,18.70
2022-08-05T05:28:08.291Z,18.80
2022-08-05T05:30:36.603Z,18.80
2022-08-05T05:33:16.193Z,18.90
2022-08-05T05:35:45.780Z,19.10
2022-08-05T05:38:14.290Z,19.30
2022-08-05T05:40:50.187Z,19.50
2022-08-05T05:43:22.302Z,19.70
2022-08-05T05:46:12.149Z,19.90
2022-08-05T05:48:43.818Z,19.90
2022-08-05T05:51:15.893Z,20.10
2022-08-05T05:53:46.056Z,20.30
2022-08-05T05:56:26.206Z,20.40
2022-08-05T05:59:03.137Z,20.40
2022-08-05T06:01:37.463Z,20.50
2022-08-05T06:04:11.995Z,20.70
2022-08-05T06:06:47.260Z,20.80
2022-08-05T06:09:17.103Z,21.00
2022-08-05T06:12:01.070Z,21.30
2022-08-05T06:14:30.421Z,21.50
2022-08-05T06:16:58.704Z,21.80
2022-08-05T06:19:34.469Z,22.00
2022-08-05T06:22:06.710Z,22.30
2022-08-05T06:24:35.141Z,22.40
2022-08-05T06:27:02.448Z,22.60
2022-08-05T06:29:46.464Z,22.70
2022-08-05T06:32:20.902Z,22.80
2022-08-05T06:34:48.634Z,23.00
2022-08-05T06:37:52.299Z,23.20
2022-08-05T06:40:07.873Z,23.20
2022-08-05T06:42:34.688Z,23.30
2022-08-05T06:45:05.472Z,23.40
2022-08-05T06:48:44.210Z,23.60
2022-08-05T06:50:22.433Z,23.80
2022-08-05T06:53:03.510Z,24.00
2022-08-05T06:55:37.190Z,24.20
2022-08-05T06:58:30.126Z,24.40
2022-08-05T07:00:51.591Z,24.50
2022-08-05T07:03:18.485Z,24.70
2022-08-05T07:05:46.431Z,24.90
2022-08-05T07:08:13.522Z,25.10
2022-08-05T07:10:52.899Z,25.20
2022-08-05T07:13:57.549Z,25.30
2022-08-05T07:17:59.526Z,25.30
2022-08-05T07:20:23.181Z,25.30
2022-08-05T07:22:22.066Z,25.50
2022-08-05T07:25:23.147Z,25.80
2022-08-05T07:27:56.541Z,26.10
2022-08-05T07:30:32.269Z,26.30
2022-08-05T07:33:05.554Z,26.70
2022-08-05T07:36:05.157Z,26.90
2022-08-05T07:38:32.969Z,27.10
2022-08-05T07:42:08.400Z,27.30
2022-08-05T07:43:51.866Z,27.60
2022-08-05T07:46:24.588Z,27.60
2022-08-05T07:49:01.973Z,27.80
2022-08-05T07:51:36.798Z,28.10
2022-08-05T07:54:08.469Z,28.20
2022-08-05T07:57:01.155Z,28.40
2022-08-05T07:59:38.691Z,28.80
2022-08-05T08:02:15.989Z,29.30
2022-08-05T08:04:45.642Z,29.40
2022-08-05T08:07:13.428Z,29.40
2022-08-05T08:09:40.636Z,29.60
2022-08-05T08:12:37.053Z,29.50
2022-08-05T08:14:54.347Z,29.40
2022-08-05T08:17:21.534Z,29.30
2022-08-05T08:20:21.167Z,29.00
2022-08-05T08:22:35.982Z,28.80
2022-08-05T08:25:15.882Z,28.60
2022-08-05T08:27:47.420Z,28.40
2022-08-05T08:30:19.077Z,28.30
2022-08-05T08:32:48.054Z,28.30
2022-08-05T08:35:18.182Z,28.60
2022-08-05T08:37:46.118Z,28.90
2022-08-05T08:40:20.443Z,29.00
2022-08-05T08:42:52.798Z,29.10
2022-08-05T08:45:26.535Z,29.30
2022-08-05T08:48:12.561Z,29.30
2022-08-05T08:51:03.870Z,29.60
2022-08-05T08:53:37.495Z,29.70
2022-08-05T08:56:07.470Z,29.80
2022-08-05T08:58:37.593Z,30.00
2022-08-05T09:01:15.792Z,29.80
2022-08-05T09:03:55.459Z,29.60
2022-08-05T09:06:29.917Z,29.50
2022-08-05T09:09:00.459Z,29.80
2022-08-05T09:11:52.140Z,30.00
2022-08-05T09:14:56.432Z,30.20
2022-08-05T09:17:39.900Z,30.20
2022-08-05T09:20:02.413Z,30.20
2022-08-05T09:23:18.553Z,30.60
2022-08-05T09:26:00.898Z,30.70
2022-08-05T09:28:34.371Z,30.80
2022-08-05T09:31:18.131Z,30.70
2022-08-05T09:34:02.595Z,30.70
2022-08-05T09:36:45.752Z,30.80
2022-08-05T09:39:27.722Z,30.70
2022-08-05T09:42:11.449Z,30.80
2022-08-05T09:44:50.559Z,31.00
2022-08-05T09:47:20.992Z,31.10
2022-08-05T09:50:01.257Z,31.20
2022-08-05T09:52:31.130Z,31.30
2022-08-05T09:55:56.125Z,31.20
2022-08-05T09:57:58.608Z,31.50
2022-08-05T10:00:27.631Z,31.60
2022-08-05T10:02:58.078Z,31.60
2022-08-05T10:05:28.443Z,31.70
2022-08-05T10:08:35.142Z,31.80
2022-08-05T10:10:43.939Z,31.70
2022-08-05T10:13:10.864Z,31.50
2022-08-05T10:15:41.621Z,31.60
2022-08-05T10:18:20.282Z,31.70
2022-08-05T10:20:52.604Z,31.90
2022-08-05T10:23:56.217Z,32.00
2022-08-05T10:26:14.040Z,32.10
2022-08-05T10:28:42.967Z,32.10
2022-08-05T10:32:50.726Z,32.10
2022-08-05T10:33:59.798Z,32.30
2022-08-05T10:36:27.618Z,32.50
2022-08-05T10:39:10.476Z,32.60
2022-08-05T10:42:00.889Z,32.40
2022-08-05T10:44:29.418Z,32.70
2022-08-05T10:46:57.202Z,32.80
2022-08-05T10:49:33.489Z,32.70
2022-08-05T10:52:49.537Z,32.90
2022-08-05T10:55:18.504Z,33.00
2022-08-05T10:57:46.294Z,32.70
2022-08-05T11:00:23.770Z,33.10
2022-08-05T11:03:23.312Z,32.90
2022-08-05T11:06:15.007Z,33.20
2022-08-05T11:09:31.941Z,33.20
2022-08-05T11:12:26.763Z,33.10
2022-08-05T11:15:19.971Z,33.20
2022-08-05T11:18:05.920Z,33.40
2022-08-05T11:20:44.994Z,33.70
2022-08-05T11:24:02.349Z,34.20
2022-08-05T11:26:29.154Z,34.20
2022-08-05T11:29:11.631Z,34.00
2022-08-05T11:31:57.742Z,33.90
2022-08-05T11:34:51.998Z,33.70
2022-08-05T11:38:37.168Z,33.50
2022-08-05T11:41:54.827Z,33.30
2022-08-05T11:44:40.859Z,33.40
2022-08-05T11:47:11.227Z,33.70
2022-08-05T11:49:43.414Z,33.80
2022-08-05T11:52:29.545Z,33.80
2022-08-05T11:54:59.448Z,33.80
2022-08-05T11:58:08.374Z,33.90
2022-08-05T12:00:30.374Z,33.80
2022-08-05T12:02:57.688Z,34.40
2022-08-05T12:05:36.393Z,34.70
2022-08-05T12:08:10.031Z,34.80
2022-08-05T12:10:45.147Z,35.10
2022-08-05T12:13:47.430Z,35.30
2022-08-05T12:16:17.575Z,35.50
2022-08-05T12:18:49.414Z,35.80
2022-08-05T12:21:31.888Z,35.60
2022-08-05T12:24:07.070Z,35.70
2022-08-05T12:26:40.939Z,35.80
2022-08-05T12:29:23.027Z,35.90
2022-08-05T12:31:57.769Z,36.40
2022-08-05T12:34:37.081Z,36.20
2022-08-05T12:37:10.961Z,36.30
2022-08-05T12:39:51.108Z,36.40
2022-08-05T12:42:19.973Z,36.90
2022-08-05T12:44:47.736Z,37.60
2022-08-05T12:47:26.810Z,38.10
2022-08-05T12:50:01.964Z,38.30
2022-08-05T12:52:38.917Z,38.80
2022-08-05T12:55:26.282Z,38.80
2022-08-05T12:58:38.050Z,39.10
2022-08-05T13:02:01.593Z,39.10
2022-08-05T13:03:32.474Z,39.90
2022-08-05T13:05:59.875Z,39.80
2022-08-05T13:08:30.340Z,39.80
2022-08-05T13:11:04.327Z,40.20
2022-08-05T13:14:05.051Z,40.60
2022-08-05T13:16:19.552Z,40.40
2022-08-05T13:18:55.293Z,40.30
2022-08-05T13:21:28.537Z,40.70
2022-08-05T13:24:06.037Z,40.90
2022-08-05T13:26:35.810Z,40.60
2022-08-05T13:29:02.685Z,40.20
2022-08-05T13:32:03.393Z,40.30
2022-08-05T13:34:21.986Z,40.00
2022-08-05T13:36:53.107Z,40.70
2022-08-05T13:39:24.498Z,41.20
2022-08-05T13:42:07.721Z,40.70
2022-08-05T13:44:45.471Z,40.30
2022-08-05T13:47:35.705Z,39.50
2022-08-05T13:50:04.407Z,39.50
2022-08-05T13:52:35.581Z,40.00
2022-08-05T13:55:07.747Z,40.30
2022-08-05T13:57:48.698Z,40.10
2022-08-05T14:00:27.028Z,40.70
2022-08-05T14:02:56.180Z,40.80
2022-08-05T14:05:48.166Z,40.90
2022-08-05T14:08:20.136Z,40.90
2022-08-05T14:10:48.622Z,41.20
2022-08-05T14:13:15.846Z,40.90
2022-08-05T14:16:09.217Z,40.30
2022-08-05T14:18:29.983Z,40.20
2022-08-05T14:20:56.707Z,40.30
2022-08-05T14:23:25.558Z,40.20
2022-08-05T14:25:58.941Z,40.60
2022-08-05T14:28:28.142Z,40.30
2022-08-05T14:30:56.345Z,39.00
2022-08-05T14:33:23.900Z,39.30
2022-08-05T14:35:54.008Z,40.00
2022-08-05T14:38:31.833Z,40.50
2022-08-05T14:41:00.377Z,41.10
2022-08-05T14:43:58.953Z,41.00
2022-08-05T14:46:14.042Z,40.90
2022-08-05T14:48:40.843Z,41.10
2022-08-05T14:51:08.356Z,41.30
2022-08-05T14:53:44.417Z,41.90
2022-08-05T14:56:11.793Z,42.40
2022-08-05T14:58:47.957Z,41.90
2022-08-05T15:01:37.087Z,40.80
2022-08-05T15:04:11.438Z,40.00
2022-08-05T15:06:40.427Z,40.70
2022-08-05T15:09:07.776Z,40.60
2022-08-05T15:11:51.667Z,40.80
2022-08-05T15:14:34.658Z,40.80
2022-08-05T15:17:14.660Z,41.30
2022-08-05T15:19:55.155Z,41.20
2022-08-05T15:22:22.164Z,41.40
2022-08-05T15:24:54.869Z,41.00
2022-08-05T15:27:21.667Z,41.60
2022-08-05T15:29:52.872Z,42.00
2022-08-05T15:32:27.409Z,42.00
2022-08-05T15:34:55.994Z,42.10
2022-08-05T15:38:33.410Z,42.10
2022-08-05T15:40:59.223Z,41.30
2022-08-05T15:43:12.838Z,41.90
2022-08-05T15:45:46.043Z,41.10
2022-08-05T15:48:14.778Z,41.10
2022-08-05T15:50:43.626Z,40.70
2022-08-05T15:53:12.690Z,40.40
2022-08-05T15:56:01.884Z,40.30
2022-08-05T15:58:29.139Z,40.40
2022-08-05T16:03:43.191Z,40.90
2022-08-05T16:06:11.168Z,41.30
2022-08-05T16:08:38.587Z,40.80
2022-08-05T16:11:05.465Z,40.80
2022-08-05T16:13:34.744Z,41.20
2022-08-05T16:16:05.714Z,40.90
2022-08-05T16:18:35.196Z,41.10
2022-08-05T16:21:42.899Z,40.70
2022-08-05T16:24:12.606Z,40.20
2022-08-05T16:27:00.275Z,39.80
2022-08-05T16:29:28.747Z,38.30
2022-08-05T16:31:58.427Z,37.10
2022-08-05T16:34:26.318Z,36.90
2022-08-05T16:36:54.299Z,37.40
2022-08-05T16:39:21.942Z,38.30
2022-08-05T16:42:14.199Z,38.20
2022-08-05T16:44:44.384Z,38.30
2022-08-05T16:47:24.706Z,37.40
2022-08-05T16:50:03.815Z,36.80
2022-08-05T16:52:33.334Z,36.60
2022-08-05T16:55:00.500Z,36.40
2022-08-05T16:57:42.948Z,36.30
2022-08-05T17:00:14.663Z,35.90
2022-08-05T17:03:04.729Z,35.60
2022-08-05T17:05:42.274Z,35.50
2022-08-05T17:08:09.004Z,35.30
2022-08-05T17:10:40.191Z,35.10
2022-08-05T17:13:15.225Z,34.60
2022-08-05T17:15:48.572Z,34.20
2022-08-05T17:18:16.476Z,33.80
2022-08-05T17:20:45.654Z,33.60
2022-08-05T17:23:19.526Z,33.30
2022-08-05T17:25:59.277Z,33.20
2022-08-05T17:28:26.027Z,33.00
2022-08-05T17:30:55.775Z,32.90
2022-08-05T17:33:23.171Z,32.80
2022-08-05T17:36:08.682Z,32.60
2022-08-05T17:38:36.775Z,32.50
2022-08-05T17:41:03.617Z,32.50
2022-08-05T17:43:47.072Z,32.50
2022-08-05T17:46:18.386Z,32.30
2022-08-05T17:48:45.227Z,32.20
2022-08-05T17:51:14.831Z,32.10
2022-08-05T17:53:54.627Z,32.00
2022-08-05T17:56:22.830Z,31.90
2022-08-05T17:58:51.222Z,31.80
2022-08-05T18:01:19.559Z,31.70
2022-08-05T18:03:58.469Z,31.40
2022-08-05T18:06:31.080Z,31.20
2022-08-05T18:08:58.455Z,31.10
2022-08-05T18:11:32.587Z,31.00
2022-08-05T18:14:03.457Z,30.80
2022-08-05T18:16:31.537Z,30.70
2022-08-05T18:18:58.374Z,30.50
2022-08-05T18:21:26.182Z,30.30
2022-08-05T18:23:54.202Z,30.30
2022-08-05T18:26:27.727Z,30.30
2022-08-05T18:28:57.254Z,30.30
2022-08-05T18:31:24.703Z,30.20
2022-08-05T18:33:51.880Z,30.10
2022-08-05T18:36:19.569Z,29.90
2022-08-05T18:38:56.161Z,29.80
2022-08-05T18:41:56.359Z,29.50
2022-08-05T18:44:12.709Z,29.40
2022-08-05T18:46:41.037Z,29.20
2022-08-05T18:49:30.302Z,29.00
2022-08-05T18:52:16.420Z,29.10
2022-08-05T18:54:45.814Z,29.20
2022-08-05T18:57:15.550Z,29.20
2022-08-05T19:00:03.107Z,29.20
2022-08-05T19:02:29.774Z,29.20
2022-08-05T19:05:02.965Z,29.10
2022-08-05T19:07:47.952Z,29.20
2022-08-05T19:10:15.844Z,29.10
2022-08-05T19:12:46.204Z,28.90
2022-08-05T19:15:56.603Z,28.80
2022-08-05T19:18:10.185Z,28.80
2022-08-05T19:20:41.288Z,28.80
2022-08-05T19:24:04.140Z,28.60
2022-08-05T19:26:01.912Z,28.40
2022-08-05T19:28:33.616Z,28.40
2022-08-05T19:31:01.124Z,28.30
2022-08-05T19:33:35.107Z,28.30
2022-08-05T19:36:06.266Z,28.20
2022-08-05T19:38:37.126Z,28.10
2022-08-05T19:41:08.822Z,28.10
2022-08-05T19:44:06.518Z,28.00
2022-08-05T19:46:30.593Z,27.90
2022-08-05T19:49:03.479Z,27.80
2022-08-05T19:52:08.505Z,27.80
2022-08-05T19:54:25.403Z,27.70
2022-08-05T19:56:56.616Z,27.50
2022-08-05T19:59:59.428Z,27.40
2022-08-05T20:02:10.252Z,27.30
2022-08-05T20:04:37.756Z,27.30
2022-08-05T20:07:10.439Z,27.30
2022-08-05T20:09:54.726Z,27.20
2022-08-05T20:12:24.536Z,27.10
2022-08-05T20:14:52.995Z,26.90
2022-08-05T20:17:23.963Z,26.80
2022-08-05T20:19:56.858Z,26.90
2022-08-05T20:22:27.110Z,26.80
2022-08-05T20:24:55.388Z,26.80
2022-08-05T20:27:26.488Z,26.70
2022-08-05T20:29:57.778Z,26.60
2022-08-05T20:32:27.267Z,26.50
2022-08-05T20:34:54.886Z,26.50
2022-08-05T20:38:06.835Z,26.40
2022-08-05T20:40:09.489Z,26.40
2022-08-05T20:42:36.363Z,26.50
2022-08-05T20:45:05.247Z,26.50
2022-08-05T20:47:33.360Z,26.50
2022-08-05T20:50:01.993Z,26.50
2022-08-05T20:52:30.806Z,26.60
2022-08-05T20:55:54.864Z,26.50
2022-08-05T20:57:45.739Z,26.60
2022-08-05T21:00:40.431Z,26.40
2022-08-05T21:03:06.767Z,26.40
2022-08-05T21:05:48.264Z,26.30
2022-08-05T21:08:33.007Z,26.30
2022-08-05T21:11:09.872Z,26.30
2022-08-05T21:13:47.945Z,26.10
2022-08-05T21:16:29.419Z,26.10
2022-08-05T21:19:00.414Z,26.10
2022-08-05T21:21:39.554Z,26.10
2022-08-05T21:24:12.783Z,26.10
2022-08-05T21:26:41.462Z,26.00
2022-08-05T21:29:12.569Z,25.90
2022-08-05T21:31:43.581Z,25.80
2022-08-05T21:34:11.343Z,25.70
2022-08-05T21:36:38.895Z,25.60
2022-08-05T21:39:09.972Z,25.50
2022-08-05T21:41:41.616Z,25.40
2022-08-05T21:44:19.346Z,25.30
2022-08-05T21:46:53.930Z,25.20
2022-08-05T21:50:00.227Z,25.20
2022-08-05T21:52:15.869Z,25.00
2022-08-05T21:54:51.195Z,24.80
2022-08-05T21:57:31.532Z,24.70
2022-08-05T22:00:10.934Z,24.60
2022-08-05T22:02:38.355Z,24.40
2022-08-05T22:05:06.100Z,24.40
2022-08-05T22:07:54.146Z,24.30
2022-08-05T22:10:25.569Z,24.20
2022-08-05T22:12:53.635Z,24.10
2022-08-05T22:16:00.957Z,24.10
2022-08-05T22:18:11.035Z,23.90
2022-08-05T22:20:38.944Z,23.80
2022-08-05T22:23:24.550Z,23.80
2022-08-05T22:26:11.832Z,23.60
2022-08-05T22:28:41.908Z,23.50
2022-08-05T22:31:08.650Z,23.50
2022-08-05T22:33:56.522Z,23.40
2022-08-05T22:36:25.556Z,23.30
2022-08-05T22:38:53.618Z,23.10
2022-08-05T22:41:26.187Z,23.00
2022-08-05T22:44:08.356Z,22.80
2022-08-05T22:46:40.185Z,22.60
2022-08-05T22:49:12.529Z,22.60
2022-08-05T22:52:05.486Z,22.60
2022-08-05T22:54:35.623Z,22.60
2022-08-05T22:57:03.682Z,22.50
2022-08-05T22:59:46.483Z,22.40
2022-08-05T23:02:18.492Z,22.30
2022-08-05T23:04:58.254Z,22.00
2022-08-05T23:07:30.357Z,21.80
2022-08-05T23:10:01.429Z,21.50
2022-08-05T23:12:32.604Z,21.30
2022-08-05T23:15:03.387Z,20.90
2022-08-05T23:17:34.625Z,20.60
2022-08-05T23:20:10.086Z,20.50
2022-08-05T23:22:43.923Z,20.20
2022-08-05T23:25:17.641Z,20.10
2022-08-05T23:28:03.430Z,20.00
2022-08-05T23:30:40.249Z,20.00
2022-08-05T23:33:22.260Z,19.80
2022-08-05T23:35:55.121Z,19.50
2022-08-05T23:38:24.138Z,19.50
2022-08-05T23:40:52.882Z,19.50
2022-08-05T23:43:24.936Z,19.40
2022-08-05T23:46:20.130Z,19.30
2022-08-05T23:49:01.076Z,19.30
2022-08-05T23:51:55.126Z,19.20
2022-08-05T23:54:30.174Z,18.90
2022-08-05T23:57:03.791Z,18.80
